Terminal Aerodrome Forecast
Issued by NWS Duluth, MN

Home | Current Version | Previous Version | Text Only | Print | Product List | Glossary Off
Versions: 1 2 3 4 5 6 7 8 9 10 11 12 13 14 15 16 17 18 19 20 21 22 23 24 25 26 27 28 29 30

000
FTUS43 KDLH 171100 RRA
TAFDLH
TAF
KDLH 171145Z 1712/1812 29006KT P6SM SCT100
     FM172000 09012G22KT P6SM VCSH OVC018
     FM180400 08012KT P6SM SCT015 BKN035=

USA.gov is the U.S. government's official web portal to all federal, state and local government web resources and services.